Stations météo

réclame
Mon MeteoGroup
Cairngorm, Grande-Bretagne (3065): Température de l'air & dewpoint: 12.01.2020 01:00:00 - 18.01.2020 01:00:00 (GMT)Cairngorm, Grande-Bretagne (3065): Vitesse du vent & gusts: 12.01.2020 01:00:00 - 18.01.2020 01:00:00 (GMT)Cairngorm, Grande-Bretagne (3065): Direction du vent: 12.01.2020 01:00:00 - 18.01.2020 01:00:00 (GMT)
Date & Time tt [°C] td [°C] ff [km/h] ff [knt] fx [km/h] fx [knt] dd
18.01.2020 01:00:00 -4,2 -4,5 74 40 91 49 W
18.01.2020 00:00:00 -4,8 -5,2 80 43 115 62 W
17.01.2020 23:00:00 -4,8 -5,1 94 51 120 65 W
17.01.2020 22:00:00 -4,7 -5,1 85 46 109 59 W
17.01.2020 21:00:00 -4,5 -4,7 74 40 109 59 W
17.01.2020 20:00:00 -4,0 -4,2 87 47 119 64 W
17.01.2020 19:00:00 -4,4 -4,6 91 49 120 65 W
17.01.2020 18:00:00 -3,5 -3,6 80 43 119 64 W
17.01.2020 17:00:00 -3,6 -3,7 83 45 102 55 W
17.01.2020 16:00:00 -3,5 -3,6 78 42 96 52 W
17.01.2020 15:00:00 -3,7 -3,8 74 40 100 54 W
17.01.2020 14:00:00 -3,6 -3,7 67 36 89 48 WSW
17.01.2020 13:00:00 -3,2 -3,2 63 34 91 49 WSW
17.01.2020 12:00:00 -3,3 -3,3 74 40 106 57 SW
17.01.2020 11:00:00 -3,6 -3,7 80 43 102 55 SW
17.01.2020 10:00:00 -4,1 -4,2 76 41 107 58 SW
17.01.2020 09:00:00 -4,4 -4,5 72 39 98 53 SW
17.01.2020 08:00:00 -3,9 -4,0 65 35 104 56 SW
17.01.2020 07:00:00 -4,0 -4,1 68 37 104 56 SW
17.01.2020 06:00:00 -3,9 -4,0 68 37 104 56 SW
17.01.2020 05:00:00 -4,0 -4,1 65 35 104 56 SW
17.01.2020 04:00:00 -3,9 -4,0 72 39 107 58 SW
17.01.2020 03:00:00 -3,3 -3,3 80 43 117 63 SW
17.01.2020 02:00:00 -3,1 -3,1 68 37 89 48 SW
17.01.2020 01:00:00 -2,5 -2,6 65 35 106 57 SW
17.01.2020 00:00:00 -1,9 -2,0 76 41 100 54 SW
16.01.2020 23:00:00 -2,1 -2,2 78 42 109 59 SW
16.01.2020 22:00:00 -2,3 -2,3 81 44 120 65 SW
16.01.2020 21:00:00 -1,7 -1,7 76 41 104 56 SW
16.01.2020 20:00:00 0,2 0,0 67 36 109 59 SSW
16.01.2020 19:00:00 0,5 0,4 78 42 119 64 S
16.01.2020 18:00:00 -0,3 -0,4 98 53 130 70 SSE
16.01.2020 17:00:00 -1,6 -1,7 107 58 133 72 SSE
16.01.2020 16:00:00 -1,6 -1,7 94 51 137 74 SE
16.01.2020 15:00:00 -1,1 -1,2 111 60 144 78 SSE
16.01.2020 14:00:00 -1,0 -1,2 102 55 141 76 SSE
16.01.2020 13:00:00 -0,6 -0,7 122 66 154 83 S
16.01.2020 12:00:00 -0,4 -0,5 91 49 131 71 S
16.01.2020 11:00:00 -0,6 -0,7 109 59 126 68 S
16.01.2020 10:00:00 -1,2 -1,3 102 55 130 70 S
16.01.2020 09:00:00 -0,6 -0,8 104 56 128 69 S
16.01.2020 08:00:00 -1,2 -1,3 109 59 135 73 SSW
16.01.2020 07:00:00 -1,5 -1,7 93 50 111 60 S
16.01.2020 06:00:00 -2,3 -2,4 85 46 133 72 SW
16.01.2020 05:00:00 -3,2 -3,3 83 45 135 73 SW
16.01.2020 04:00:00 -3,8 -4,0 85 46 117 63 SW
16.01.2020 03:00:00 -3,4 -3,6 72 39 100 54 SW
16.01.2020 02:00:00 -3,4 -3,6 74 40 119 64 SW
16.01.2020 01:00:00 -3,1 -3,2 76 41 113 61 SW
16.01.2020 00:00:00 -3,3 -3,4 78 42 135 73 WSW
15.01.2020 23:00:00 -3,3 -3,4 78 42 128 69 WSW
15.01.2020 22:00:00 -2,8 -2,9 89 48 144 78 WSW
15.01.2020 21:00:00 -3,5 -3,7 98 53 144 78 WSW
15.01.2020 20:00:00 -1,8 -2,0 78 42 119 64 WSW
15.01.2020 19:00:00 -1,9 -2,0 68 37 120 65 WSW
15.01.2020 18:00:00 -1,8 -1,9 87 47 122 66 SW
15.01.2020 17:00:00 -2,0 -2,1 96 52 143 77 SW
15.01.2020 16:00:00 -1,8 -2,0 102 55 131 71 SW
15.01.2020 15:00:00 -2,0 -2,1 93 50 144 78 SW
15.01.2020 14:00:00 -2,2 -2,3 109 59 146 79 SW
15.01.2020 13:00:00 -2,4 -2,6 111 60 148 80 SW
15.01.2020 12:00:00 -2,8 -2,9 122 66 150 81 SW
15.01.2020 11:00:00 -3,1 -3,3 107 58 165 89 SW
15.01.2020 10:00:00 -3,6 -3,8 109 59 146 79 SW
15.01.2020 09:00:00 -4,3 -4,6 106 57 144 78 SW
15.01.2020 08:00:00 -4,4 -4,7 94 51 156 84 SW
15.01.2020 07:00:00 -4,1 -4,3 94 51 143 77 SW
15.01.2020 06:00:00 -4,4 -4,6 106 57 141 76 SW
15.01.2020 05:00:00 -4,7 -4,9 94 51 141 76 SW
15.01.2020 04:00:00 -4,9 -5,2 104 56 161 87 SW
15.01.2020 03:00:00 -5,2 -5,4 109 59 156 84 SW
15.01.2020 02:00:00 -5,2 -5,5 83 45 122 66 SSW
15.01.2020 01:00:00 -5,0 -5,3 78 42 120 65 SSW
15.01.2020 00:00:00 -5,4 -5,7 89 48 115 62 SW
14.01.2020 23:00:00 -5,0 -5,2 65 35 100 54 SW
14.01.2020 22:00:00 -5,5 -5,7 78 42 113 61 SW
14.01.2020 21:00:00 -5,3 -5,6 68 37 100 54 SW
14.01.2020 20:00:00 -5,2 -5,5 74 40 96 52 SW
14.01.2020 19:00:00 -4,5 -4,7 57 31 111 60 SW
14.01.2020 18:00:00 -4,4 -4,6 67 36 109 59 SSW
14.01.2020 17:00:00 -4,3 -4,5 76 41 100 54 SSW
14.01.2020 16:00:00 -4,4 -4,6 74 40 106 57 SSW
14.01.2020 15:00:00 -4,7 -4,9 78 42 113 61 SSW
14.01.2020 14:00:00 -4,8 -5,0 85 46 120 65 SSW
14.01.2020 13:00:00 -4,9 -5,1 91 49 133 72 SSW
14.01.2020 12:00:00 -5,6 -5,9 102 55 130 70 SSW
14.01.2020 11:00:00 -5,3 -5,6 104 56 131 71 SSW
14.01.2020 10:00:00 -5,4 -5,7 91 49 133 72 SSW
14.01.2020 09:00:00 -5,8 -6,1 83 45 137 74 SSW
14.01.2020 08:00:00 -5,5 -5,8 89 48 143 77 SSW
14.01.2020 07:00:00 -5,7 -5,9 76 41 137 74 SW
14.01.2020 06:00:00 -5,7 -6,0 89 48 124 67 SSW
14.01.2020 05:00:00 -5,9 -6,2 94 51 139 75 SW
14.01.2020 04:00:00 -5,5 -5,8 78 42 122 66 SW
14.01.2020 03:00:00 -5,4 -5,8 78 42 126 68 SW
14.01.2020 02:00:00 -5,5 -5,8 89 48 139 75 SW
14.01.2020 01:00:00 -4,4 -4,6 94 51 135 73 SSW
14.01.2020 00:00:00 -4,0 -4,2 93 50 137 74 SSW
13.01.2020 23:00:00 -2,9 -3,0 109 59 146 79 SSW
13.01.2020 22:00:00 -2,3 -2,4 102 55 180 97 SSW
13.01.2020 21:00:00 -2,1 -2,3 100 54 141 76 SSW
13.01.2020 20:00:00 -2,1 -2,2 111 60 143 77 SSW
13.01.2020 19:00:00 -2,2 -2,3 100 54 152 82 S
13.01.2020 18:00:00 -2,1 -2,2 98 53 170 92 S
13.01.2020 17:00:00 -1,2 -1,4 141 76 181 98 SE
13.01.2020 16:00:00 -2,2 -2,3 146 79 189 102 SE
13.01.2020 15:00:00 -2,6 -2,7 148 80 194 105 SSE
13.01.2020 14:00:00 -1,4 -1,5 133 72 191 103 SSE
13.01.2020 13:00:00 -0,8 -0,9 100 54 174 94 SSE
13.01.2020 12:00:00 -2,5 -2,6 122 66 181 98 S
13.01.2020 11:00:00 -2,2 -2,3 120 65 150 81 S
13.01.2020 10:00:00 -1,9 -2,0 122 66 157 85 S
13.01.2020 09:00:00 -2,5 -2,6 85 46 126 68 S
13.01.2020 08:00:00 -3,0 -3,1 98 53 119 64 S
13.01.2020 07:00:00 -3,4 -3,5 104 56 122 66 S
13.01.2020 06:00:00 -3,8 -3,9 94 51 117 63 S
13.01.2020 05:00:00 -5,0 -5,2 93 50 115 62 SSW
13.01.2020 04:00:00 -4,7 -5,3 89 48 131 71 SSW
13.01.2020 03:00:00 -4,7 -4,9 67 36 133 72 SSW
13.01.2020 02:00:00 -4,7 -4,9 102 55 133 72 SW
13.01.2020 01:00:00 -4,8 -5,1 91 49 122 66 SSW
13.01.2020 00:00:00 -4,2 -4,4 91 49 126 68 SSW
12.01.2020 23:00:00 -4,1 -4,3 94 51 120 65 SW
12.01.2020 22:00:00 -4,0 -4,1 85 46 115 62 SW
12.01.2020 21:00:00 -4,3 -4,6 74 40 115 62 SW
12.01.2020 20:00:00 -4,7 -5,0 80 43 111 60 WSW
12.01.2020 19:00:00 -4,8 -5,0 81 44 109 59 WSW
12.01.2020 18:00:00 -5,2 -5,7 76 41 104 56 WSW
12.01.2020 17:00:00 -5,2 -5,5 67 36 107 58 WSW
12.01.2020 16:00:00 -5,3 -5,7 74 40 113 61 W
12.01.2020 15:00:00 -4,9 -5,3 89 48 131 71 W
12.01.2020 14:00:00 -5,0 -5,5 91 49 128 69 W
12.01.2020 13:00:00 -5,1 -5,4 87 47 119 64 W
12.01.2020 12:00:00 -4,6 -4,8 68 37 94 51 W
12.01.2020 11:00:00 -4,9 -5,2 68 37 85 46 W
12.01.2020 10:00:00 -4,1 -4,2 68 37 93 50 W
12.01.2020 09:00:00 -3,8 -3,9 55 30 94 51 W
12.01.2020 08:00:00 -3,8 -3,9 65 35 89 48 SW
12.01.2020 07:00:00 -4,4 -4,7 57 31 94 51 SW
12.01.2020 06:00:00 -4,3 -4,4 68 37 89 48 SW
12.01.2020 05:00:00 -4,8 -5,3 65 35 83 45 SW
12.01.2020 04:00:00 -5,2 -5,8 63 34 98 53 WSW
12.01.2020 03:00:00 -5,3 -5,6 70 38 93 50 WSW
12.01.2020 02:00:00 -4,6 -4,8 65 35 81 44 WSW
12.01.2020 01:00:00 -4,6 -4,7 52 28 78 42 W

tt = Température de l'air
td = dewpoint
ff = Vitesse du vent
fx = gusts
dd = Direction du vent

stations d'obs. à proximité